Contact Info

Augusta Flying Club, Inc

KDNL 281753Z AUTO VRB04KT 10SM CLR 16/M02 A2995 RMK AO2 SLP141 T01561017 10161 20078 58027


TAF KDNL 281739Z 2818/2918 VRB03KT P6SM SCT200 FM290500 29004KT P6SM SCT250

info@augustaflyingclub.com

Send us a message